createdAt,value
2018-06-03T00:00:00.813Z,99.29
2018-06-03T00:00:05.028Z,99.39
2018-06-03T00:00:09.349Z,99.77
2018-06-03T00:00:13.557Z,99.68
2018-06-03T00:00:17.775Z,99.68
2018-06-03T00:00:22.092Z,99.2
2018-06-03T00:00:26.199Z,99.29
2018-06-03T00:00:30.299Z,99.68
2018-06-03T00:00:34.295Z,99.68
2018-06-03T00:00:38.505Z,99.1
2018-06-03T00:00:42.722Z,99.68
2018-06-03T00:00:46.936Z,99.1
2018-06-03T00:00:51.254Z,99.1
2018-06-03T00:00:55.459Z,99.01
2018-06-03T00:00:59.348Z,98.91
2018-06-03T00:01:03.558Z,99.1
2018-06-03T00:01:07.879Z,99.1
2018-06-03T00:01:12.091Z,99.58
2018-06-03T00:01:16.422Z,99.68
2018-06-03T00:01:20.753Z,99.2
2018-06-03T00:01:25.076Z,99.1
2018-06-03T00:01:29.397Z,99.49
2018-06-03T00:01:33.287Z,99.39
2018-06-03T00:01:37.499Z,99.1
2018-06-03T00:01:41.716Z,99.01
2018-06-03T00:01:46.038Z,99.49
2018-06-03T00:01:50.179Z,99.1
2018-06-03T00:01:54.398Z,98.91
2018-06-03T00:01:58.611Z,98.91
2018-06-03T00:02:02.722Z,99.1
2018-06-03T00:02:06.937Z,99.2
2018-06-03T00:02:11.147Z,99.1
2018-06-03T00:02:15.478Z,99.01
2018-06-03T00:02:19.803Z,99.29
2018-06-03T00:02:24.014Z,99.01
2018-06-03T00:02:28.111Z,99.39
2018-06-03T00:02:32.439Z,99.39
2018-06-03T00:02:36.652Z,99.1
2018-06-03T00:02:40.754Z,99.29
2018-06-03T00:02:44.961Z,99.29
2018-06-03T00:02:49.179Z,99.15
2018-06-03T00:02:53.391Z,99.29
2018-06-03T00:02:57.489Z,99.29
2018-06-03T00:03:01.707Z,99.1
2018-06-03T00:03:06.069Z,98.72
2018-06-03T00:03:10.388Z,99.01
2018-06-03T00:03:14.604Z,98.72
2018-06-03T00:03:18.826Z,98.86
2018-06-03T00:03:22.821Z,98.43
2018-06-03T00:03:26.924Z,98.53
2018-06-03T00:03:30.916Z,98.28
2018-06-03T00:03:35.132Z,98.24
2018-06-03T00:03:39.458Z,98.38
2018-06-03T00:03:43.512Z,98.62
2018-06-03T00:03:47.828Z,98.53
2018-06-03T00:03:51.926Z,98.14
2018-06-03T00:03:56.134Z,98.43
2018-06-03T00:04:00.455Z,98.24
2018-06-03T00:04:04.557Z,98.57
2018-06-03T00:04:08.659Z,98.72
2018-06-03T00:04:12.969Z,98.86
2018-06-03T00:04:17.074Z,98.43
2018-06-03T00:04:21.072Z,98.14
2018-06-03T00:04:25.420Z,98.24
2018-06-03T00:04:29.526Z,98.14
2018-06-03T00:04:33.764Z,98.1
2018-06-03T00:04:37.972Z,97.86
2018-06-03T00:04:42.185Z,98.05
2018-06-03T00:04:46.399Z,97.81
2018-06-03T00:04:50.713Z,98.05
2018-06-03T00:04:55.030Z,98
2018-06-03T00:04:59.238Z,98.14
2018-06-03T00:05:03.230Z,97.71
2018-06-03T00:05:07.237Z,96.99
2018-06-03T00:05:11.552Z,97.19
2018-06-03T00:05:15.545Z,97.66
2018-06-03T00:05:19.653Z,97.09
2018-06-03T00:05:23.648Z,96.94
2018-06-03T00:05:27.859Z,97.19
2018-06-03T00:05:32.079Z,97.47
2018-06-03T00:05:36.281Z,97.28
2018-06-03T00:05:40.382Z,96.8
2018-06-03T00:05:44.592Z,96.8
2018-06-03T00:05:48.919Z,96.94
2018-06-03T00:05:53.022Z,96.61
2018-06-03T00:05:57.230Z,96.94
2018-06-03T00:06:01.455Z,96.99
2018-06-03T00:06:05.555Z,96.99
2018-06-03T00:06:09.876Z,96.27
2018-06-03T00:06:13.768Z,96.22
2018-06-03T00:06:17.873Z,96.42
2018-06-03T00:06:22.201Z,96.32
2018-06-03T00:06:26.305Z,96.37
2018-06-03T00:06:30.515Z,96.22
2018-06-03T00:06:34.521Z,96.27
2018-06-03T00:06:38.728Z,96.18
2018-06-03T00:06:42.841Z,96.37
2018-06-03T00:06:47.155Z,96.66
2018-06-03T00:06:51.471Z,95.79
2018-06-03T00:06:55.575Z,95.79
2018-06-03T00:06:59.799Z,95.98
2018-06-03T00:07:03.954Z,95.98
2018-06-03T00:07:08.173Z,95.98
2018-06-03T00:07:12.382Z,96.08
2018-06-03T00:07:16.602Z,96.08
2018-06-03T00:07:20.818Z,95.89
2018-06-03T00:07:25.033Z,95.79
2018-06-03T00:07:29.151Z,95.41
2018-06-03T00:07:33.372Z,95.41
2018-06-03T00:07:37.582Z,95.46
2018-06-03T00:07:41.683Z,95.75
2018-06-03T00:07:45.788Z,95.41
2018-06-03T00:07:49.999Z,95.55
2018-06-03T00:07:54.100Z,95.6
2018-06-03T00:07:58.309Z,95.6
2018-06-03T00:08:02.409Z,95.7
2018-06-03T00:08:06.619Z,95.12
2018-06-03T00:08:10.932Z,95.03
2018-06-03T00:08:15.033Z,95.12
2018-06-03T00:08:19.350Z,94.64
2018-06-03T00:08:23.342Z,95.12
2018-06-03T00:08:27.554Z,94.84
2018-06-03T00:08:31.659Z,95.12
2018-06-03T00:08:35.974Z,95.12
2018-06-03T00:08:40.087Z,95.12
2018-06-03T00:08:44.190Z,95.03
2018-06-03T00:08:48.300Z,95.31
2018-06-03T00:08:52.397Z,95.31
2018-06-03T00:08:56.612Z,95.31
2018-06-03T00:09:00.720Z,94.93
2018-06-03T00:09:04.945Z,94.69
2018-06-03T00:09:09.270Z,94.49
2018-06-03T00:09:13.597Z,94.64
2018-06-03T00:09:17.808Z,94.84
2018-06-03T00:09:22.015Z,94.45
2018-06-03T00:09:25.902Z,94.64
2018-06-03T00:09:30.118Z,94.64
2018-06-03T00:09:34.232Z,94.45
2018-06-03T00:09:38.442Z,94.17
2018-06-03T00:09:42.691Z,94.02
2018-06-03T00:09:47.291Z,93.78
2018-06-03T00:09:51.750Z,93.92
2018-06-03T00:09:55.967Z,94.35
2018-06-03T00:10:00.292Z,93.3
2018-06-03T00:10:04.503Z,93.59
2018-06-03T00:10:08.720Z,93.44
2018-06-03T00:10:13.049Z,93.59
2018-06-03T00:10:17.258Z,93.54
2018-06-03T00:10:21.250Z,93.78
2018-06-03T00:10:25.356Z,93.82
2018-06-03T00:10:29.575Z,93.59
2018-06-03T00:10:33.673Z,93.3
2018-06-03T00:10:37.782Z,93.49
2018-06-03T00:10:41.880Z,93.21
2018-06-03T00:10:46.121Z,92.86
2018-06-03T00:10:50.329Z,93.21
2018-06-03T00:10:54.325Z,93.11
2018-06-03T00:10:58.537Z,93.01
2018-06-03T00:11:02.848Z,93.11
2018-06-03T00:11:06.959Z,92.54
2018-06-03T00:11:11.285Z,93.21
2018-06-03T00:11:15.392Z,93.01
2018-06-03T00:11:19.495Z,92.91
2018-06-03T00:11:23.698Z,93.15
2018-06-03T00:11:27.901Z,93.11
2018-06-03T00:11:32.113Z,93.11
2018-06-03T00:11:36.218Z,93.11
2018-06-03T00:11:40.426Z,93.11
2018-06-03T00:11:44.641Z,92.72
2018-06-03T00:11:48.962Z,92.63
2018-06-03T00:11:53.174Z,92.91
2018-06-03T00:11:57.384Z,93.11
2018-06-03T00:12:01.708Z,92.91
2018-06-03T00:12:05.865Z,93.21
2018-06-03T00:12:10.076Z,93.11
2018-06-03T00:12:14.395Z,92.63
2018-06-03T00:12:18.601Z,92.63
2018-06-03T00:12:22.867Z,93.11
2018-06-03T00:12:27.083Z,92.82
2018-06-03T00:12:31.289Z,92.54
2018-06-03T00:12:35.505Z,92.82
2018-06-03T00:12:39.392Z,92.91
2018-06-03T00:12:43.607Z,92.82
2018-06-03T00:12:47.828Z,92.72
2018-06-03T00:12:52.142Z,92.54
2018-06-03T00:12:56.249Z,92.63
2018-06-03T00:13:00.358Z,92.91
2018-06-03T00:13:04.613Z,93.11
2018-06-03T00:13:08.831Z,93.11
2018-06-03T00:13:12.933Z,93.11
2018-06-03T00:13:17.253Z,92.72
2018-06-03T00:13:21.461Z,92.72
2018-06-03T00:13:25.674Z,93.01
2018-06-03T00:13:29.886Z,93.11
2018-06-03T00:13:33.993Z,93.11
2018-06-03T00:13:38.199Z,93.11
2018-06-03T00:13:42.416Z,93.49
2018-06-03T00:13:46.515Z,93.21
2018-06-03T00:13:50.841Z,92.63
2018-06-03T00:13:55.158Z,93.21
2018-06-03T00:13:59.372Z,93.01
2018-06-03T00:14:03.366Z,93.21
2018-06-03T00:14:07.577Z,93.4
2018-06-03T00:14:11.815Z,93.21
2018-06-03T00:14:16.140Z,93.78
2018-06-03T00:14:20.460Z,93.59
2018-06-03T00:14:24.782Z,93.49
2018-06-03T00:14:28.818Z,93.78
2018-06-03T00:14:33.028Z,93.3
2018-06-03T00:14:37.241Z,93.4
2018-06-03T00:14:41.343Z,93.4
2018-06-03T00:14:45.665Z,94.17
2018-06-03T00:14:50.022Z,94.07
2018-06-03T00:14:54.124Z,93.97
2018-06-03T00:14:58.121Z,94.07
2018-06-03T00:15:02.340Z,94.17
2018-06-03T00:15:06.356Z,94.07
2018-06-03T00:15:10.571Z,94.07
2018-06-03T00:15:14.883Z,94.07
2018-06-03T00:15:18.985Z,93.97
2018-06-03T00:15:22.974Z,94.17
2018-06-03T00:15:26.968Z,94.26
2018-06-03T00:15:31.287Z,94.35
2018-06-03T00:15:35.506Z,94.17
2018-06-03T00:15:39.824Z,94.45
2018-06-03T00:15:43.709Z,94.26
2018-06-03T00:15:47.853Z,93.97
2018-06-03T00:15:51.953Z,93.97
2018-06-03T00:15:56.060Z,93.97
2018-06-03T00:16:00.161Z,94.17
2018-06-03T00:16:04.268Z,93.78
2018-06-03T00:16:08.481Z,94.26
2018-06-03T00:16:12.695Z,94.17
2018-06-03T00:16:16.935Z,94.07
2018-06-03T00:16:21.038Z,94.35
2018-06-03T00:16:25.361Z,93.88
2018-06-03T00:16:29.476Z,93.97
2018-06-03T00:16:33.695Z,93.97
2018-06-03T00:16:38.033Z,93.21
2018-06-03T00:16:42.355Z,93.21
2018-06-03T00:16:46.575Z,93.3
2018-06-03T00:16:50.792Z,93.4
2018-06-03T00:16:55.124Z,93.49
2018-06-03T00:16:59.343Z,93.49
2018-06-03T00:17:03.445Z,93.78
2018-06-03T00:17:07.661Z,93.4
2018-06-03T00:17:11.775Z,93.4
2018-06-03T00:17:16.090Z,93.21
2018-06-03T00:17:20.409Z,93.11
2018-06-03T00:17:24.665Z,93.49
2018-06-03T00:17:28.991Z,92.54
2018-06-03T00:17:33.196Z,93.01
2018-06-03T00:17:37.412Z,93.21
2018-06-03T00:17:41.735Z,93.3
2018-06-03T00:17:45.724Z,93.01
2018-06-03T00:17:49.825Z,93.11
2018-06-03T00:17:54.038Z,92.91
2018-06-03T00:17:58.141Z,93.49
2018-06-03T00:18:02.192Z,93.11
2018-06-03T00:18:06.407Z,93.11
2018-06-03T00:18:10.613Z,93.49
2018-06-03T00:18:14.941Z,93.11
2018-06-03T00:18:19.153Z,92.91
2018-06-03T00:18:23.254Z,93.21
2018-06-03T00:18:27.575Z,93.3
2018-06-03T00:18:31.680Z,93.4
2018-06-03T00:18:35.890Z,93.4
2018-06-03T00:18:40.098Z,92.63
2018-06-03T00:18:44.239Z,92.63
2018-06-03T00:18:48.456Z,93.01
2018-06-03T00:18:52.772Z,92.91
2018-06-03T00:18:56.875Z,92.72
2018-06-03T00:19:01.211Z,92.82
2018-06-03T00:19:05.199Z,93.59
2018-06-03T00:19:09.522Z,92.82
2018-06-03T00:19:13.846Z,92.82
2018-06-03T00:19:17.840Z,92.54
2018-06-03T00:19:22.050Z,93.01
2018-06-03T00:19:26.375Z,93.11
2018-06-03T00:19:30.585Z,93.4
2018-06-03T00:19:34.908Z,92.91
2018-06-03T00:19:39.232Z,93.3
2018-06-03T00:19:43.333Z,93.11
2018-06-03T00:19:47.542Z,93.11
2018-06-03T00:19:51.766Z,92.91
2018-06-03T00:19:56.083Z,93.21
2018-06-03T00:20:00.293Z,93.01
2018-06-03T00:20:04.513Z,92.91
2018-06-03T00:20:08.612Z,92.91
2018-06-03T00:20:12.824Z,93.21
2018-06-03T00:20:16.924Z,93.11
2018-06-03T00:20:21.133Z,92.63
2018-06-03T00:20:25.349Z,93.11
2018-06-03T00:20:29.448Z,92.91
2018-06-03T00:20:33.768Z,92.91
2018-06-03T00:20:37.760Z,93.21
2018-06-03T00:20:41.985Z,93.4
2018-06-03T00:20:46.307Z,93.49
2018-06-03T00:20:50.411Z,92.91
2018-06-03T00:20:54.620Z,92.91
2018-06-03T00:20:58.831Z,93.11
2018-06-03T00:21:02.828Z,93.11
2018-06-03T00:21:07.038Z,92.91
2018-06-03T00:21:11.172Z,92.82
2018-06-03T00:21:15.493Z,92.82
2018-06-03T00:21:19.807Z,93.11
2018-06-03T00:21:23.802Z,93.01
2018-06-03T00:21:27.910Z,93.01
2018-06-03T00:21:32.229Z,92.82
2018-06-03T00:21:36.440Z,92.72
2018-06-03T00:21:40.436Z,92.24
2018-06-03T00:21:44.651Z,92.54
2018-06-03T00:21:48.756Z,92.24
2018-06-03T00:21:52.977Z,92.72
2018-06-03T00:21:57.290Z,92.15
2018-06-03T00:22:01.621Z,92.15
2018-06-03T00:22:05.831Z,92.24
2018-06-03T00:22:09.933Z,92.63
2018-06-03T00:22:14.143Z,92.24
2018-06-03T00:22:18.461Z,92.15
2018-06-03T00:22:22.679Z,92.15
2018-06-03T00:22:26.790Z,92.15
2018-06-03T00:22:31.047Z,92.72
2018-06-03T00:22:35.370Z,92.44
2018-06-03T00:22:39.590Z,92.63
2018-06-03T00:22:43.590Z,92.34
2018-06-03T00:22:47.590Z,92.63
2018-06-03T00:22:51.808Z,92.63
2018-06-03T00:22:56.022Z,92.54
2018-06-03T00:23:00.244Z,92.63
2018-06-03T00:23:04.348Z,92.63
2018-06-03T00:23:08.673Z,92.15
2018-06-03T00:23:12.780Z,92.54
2018-06-03T00:23:16.989Z,92.24
2018-06-03T00:23:21.309Z,92.54
2018-06-03T00:23:25.528Z,92.72
2018-06-03T00:23:29.736Z,92.54
2018-06-03T00:23:33.949Z,91.96
2018-06-03T00:23:38.163Z,92.24
2018-06-03T00:23:42.480Z,92.15
2018-06-03T00:23:46.805Z,92.05
2018-06-03T00:23:51.021Z,92.15
2018-06-03T00:23:55.019Z,91.67
2018-06-03T00:23:59.335Z,91.77
2018-06-03T00:24:03.495Z,91.67
2018-06-03T00:24:07.719Z,91.48
2018-06-03T00:24:12.061Z,91.57
2018-06-03T00:24:16.160Z,91.57
2018-06-03T00:24:20.373Z,91.09
2018-06-03T00:24:24.479Z,91.28
2018-06-03T00:24:28.261Z,91.28
2018-06-03T00:24:32.469Z,91.19
2018-06-03T00:24:36.679Z,91
2018-06-03T00:24:40.890Z,91.09
2018-06-03T00:24:45.019Z,90.81
2018-06-03T00:24:49.233Z,90.81
2018-06-03T00:24:53.448Z,90.9
2018-06-03T00:24:57.668Z,90.71
2018-06-03T00:25:01.989Z,91.09
2018-06-03T00:25:06.096Z,91.19
2018-06-03T00:25:10.200Z,91.09
2018-06-03T00:25:14.305Z,91
2018-06-03T00:25:18.411Z,90.9
2018-06-03T00:25:22.301Z,90.61
2018-06-03T00:25:26.513Z,90.61
2018-06-03T00:25:30.829Z,90.9
2018-06-03T00:25:35.154Z,90.9
2018-06-03T00:25:39.367Z,90.52
2018-06-03T00:25:43.479Z,90.61
2018-06-03T00:25:47.689Z,90.76
2018-06-03T00:25:52.005Z,90.9
2018-06-03T00:25:56.328Z,90.61
2018-06-03T00:26:00.435Z,90.71
2018-06-03T00:26:04.643Z,90.57
2018-06-03T00:26:08.936Z,90.71
2018-06-03T00:26:13.262Z,90.47
2018-06-03T00:26:17.559Z,90.42
2018-06-03T00:26:22.057Z,90.57
2018-06-03T00:26:26.276Z,90.42
2018-06-03T00:26:30.484Z,90.52
2018-06-03T00:26:34.485Z,90.61
2018-06-03T00:26:38.829Z,90.33
2018-06-03T00:26:42.997Z,90.47
2018-06-03T00:26:47.329Z,90.61
2018-06-03T00:26:51.648Z,90.9
2018-06-03T00:26:55.980Z,90.81
2018-06-03T00:27:00.080Z,90.71
2018-06-03T00:27:04.187Z,90.9
2018-06-03T00:27:08.291Z,90.86
2018-06-03T00:27:12.392Z,90.76
2018-06-03T00:27:16.609Z,90.9
2018-06-03T00:27:20.817Z,90.9
2018-06-03T00:27:24.923Z,91.09
2018-06-03T00:27:29.132Z,90.81
2018-06-03T00:27:33.454Z,91
2018-06-03T00:27:37.767Z,91.19
2018-06-03T00:27:41.869Z,91.09
2018-06-03T00:27:45.971Z,91.09
2018-06-03T00:27:50.073Z,91.09
2018-06-03T00:27:54.285Z,91.09
2018-06-03T00:27:58.497Z,90.9
2018-06-03T00:28:02.487Z,91
2018-06-03T00:28:06.711Z,91.09
2018-06-03T00:28:10.919Z,90.76
2018-06-03T00:28:15.021Z,90.61
2018-06-03T00:28:19.124Z,90.52
2018-06-03T00:28:23.233Z,90.61
2018-06-03T00:28:27.445Z,90.61
2018-06-03T00:28:31.555Z,90.71
2018-06-03T00:28:35.763Z,90.71
2018-06-03T00:28:40.094Z,90.57
2018-06-03T00:28:44.192Z,90.42
2018-06-03T00:28:48.289Z,90.42
2018-06-03T00:28:52.497Z,90.42
2018-06-03T00:28:56.813Z,90.42
2018-06-03T00:29:00.916Z,90.42
2018-06-03T00:29:05.229Z,90.76
2018-06-03T00:29:09.444Z,90.42
2018-06-03T00:29:13.771Z,90.42
2018-06-03T00:29:18.088Z,90.23
2018-06-03T00:29:22.307Z,90.38
2018-06-03T00:29:26.623Z,90.23
2018-06-03T00:29:30.835Z,90.42
2018-06-03T00:29:35.052Z,90.33
2018-06-03T00:29:39.043Z,90.42
2018-06-03T00:29:43.144Z,90.23
2018-06-03T00:29:47.465Z,90.42
2018-06-03T00:29:51.686Z,90.42
2018-06-03T00:29:55.786Z,90.38
2018-06-03T00:30:00.104Z,90.33
2018-06-03T00:30:04.248Z,90.19
2018-06-03T00:30:08.353Z,90.14
2018-06-03T00:30:12.460Z,90.14
2018-06-03T00:30:16.773Z,89.75
2018-06-03T00:30:20.767Z,90.23
2018-06-03T00:30:25.091Z,90.04
2018-06-03T00:30:29.412Z,89.75
2018-06-03T00:30:33.736Z,89.75
2018-06-03T00:30:38.055Z,89.9
2018-06-03T00:30:42.167Z,90.04
2018-06-03T00:30:46.272Z,89.94
2018-06-03T00:30:50.371Z,89.85
2018-06-03T00:30:54.584Z,89.37
2018-06-03T00:30:58.908Z,89.75
2018-06-03T00:31:03.006Z,89.56
2018-06-03T00:31:07.021Z,89.75
2018-06-03T00:31:11.235Z,89.85
2018-06-03T00:31:15.559Z,89.8
2018-06-03T00:31:19.666Z,89.27
2018-06-03T00:31:23.990Z,89.42
2018-06-03T00:31:28.308Z,88.98
2018-06-03T00:31:32.421Z,89.18
2018-06-03T00:31:36.522Z,89.23
2018-06-03T00:31:40.836Z,89.27
2018-06-03T00:31:45.148Z,88.89
2018-06-03T00:31:49.252Z,89.08
2018-06-03T00:31:53.358Z,88.7
2018-06-03T00:31:57.683Z,88.17
2018-06-03T00:32:02.016Z,88.08
2018-06-03T00:32:06.232Z,87.93
2018-06-03T00:32:10.560Z,87.45
2018-06-03T00:32:14.669Z,87.35
2018-06-03T00:32:18.987Z,87.45
2018-06-03T00:32:23.304Z,87.07
2018-06-03T00:32:27.624Z,87.02
2018-06-03T00:32:31.833Z,86.78
2018-06-03T00:32:35.830Z,86.4
2018-06-03T00:32:40.043Z,86.35
2018-06-03T00:32:44.039Z,86.49
2018-06-03T00:32:48.256Z,86.01
2018-06-03T00:32:52.582Z,85.68
2018-06-03T00:32:56.797Z,85.34
2018-06-03T00:33:01.123Z,84.82
2018-06-03T00:33:05.467Z,84.58
2018-06-03T00:33:09.693Z,84.67
2018-06-03T00:33:13.800Z,84.09
2018-06-03T00:33:18.034Z,84
2018-06-03T00:33:22.351Z,83.81
2018-06-03T00:33:26.571Z,83.23
2018-06-03T00:33:30.675Z,82.94
2018-06-03T00:33:34.455Z,82.94
2018-06-03T00:33:38.564Z,82.94
2018-06-03T00:33:42.681Z,82.65
2018-06-03T00:33:46.894Z,82.65
2018-06-03T00:33:51.111Z,82.18
2018-06-03T00:33:55.323Z,81.7
2018-06-03T00:33:59.639Z,81.41
2018-06-03T00:34:03.867Z,81.51
2018-06-03T00:34:08.091Z,81.12
2018-06-03T00:34:12.197Z,81.22
2018-06-03T00:34:16.520Z,80.83
2018-06-03T00:34:20.732Z,80.26
2018-06-03T00:34:24.971Z,80.35
2018-06-03T00:34:28.969Z,80.35
2018-06-03T00:34:33.189Z,80.35
2018-06-03T00:34:37.409Z,80.16
2018-06-03T00:34:41.524Z,79.78
2018-06-03T00:34:45.856Z,79.97
2018-06-03T00:34:50.068Z,79.59
2018-06-03T00:34:54.279Z,79.49
2018-06-03T00:34:58.489Z,79.49
2018-06-03T00:35:02.594Z,79.49
2018-06-03T00:35:06.739Z,79.39
2018-06-03T00:35:11.119Z,79.01
2018-06-03T00:35:15.454Z,79.11
2018-06-03T00:35:19.771Z,79.3
2018-06-03T00:35:23.976Z,79.11
2018-06-03T00:35:28.197Z,79.01
2018-06-03T00:35:32.417Z,79.11
2018-06-03T00:35:36.624Z,78.72
2018-06-03T00:35:40.727Z,78.82
2018-06-03T00:35:44.723Z,78.92
2018-06-03T00:35:48.933Z,78.72
2018-06-03T00:35:52.817Z,79.11
2018-06-03T00:35:56.922Z,79.01
2018-06-03T00:36:01.240Z,78.72
2018-06-03T00:36:05.237Z,78.82
2018-06-03T00:36:09.455Z,78.82
2018-06-03T00:36:13.666Z,79.01
2018-06-03T00:36:17.884Z,78.82
2018-06-03T00:36:22.213Z,78.82
2018-06-03T00:36:26.539Z,78.92
2018-06-03T00:36:30.793Z,78.53
2018-06-03T00:36:35.008Z,78.72
2018-06-03T00:36:39.110Z,78.63
2018-06-03T00:36:43.377Z,78.63
2018-06-03T00:36:47.716Z,78.53
2018-06-03T00:36:52.034Z,78.63
2018-06-03T00:36:56.042Z,78.44
2018-06-03T00:37:00.357Z,78.53
2018-06-03T00:37:04.467Z,78.44
2018-06-03T00:37:08.575Z,78.44
2018-06-03T00:37:12.784Z,78.44
2018-06-03T00:37:16.994Z,78.63
2018-06-03T00:37:21.210Z,78.44
2018-06-03T00:37:25.418Z,78.25
2018-06-03T00:37:29.735Z,77.95
2018-06-03T00:37:33.947Z,78.25
2018-06-03T00:37:38.057Z,78.15
2018-06-03T00:37:42.158Z,78.44
2018-06-03T00:37:46.380Z,78.44
2018-06-03T00:37:50.479Z,78.72
2018-06-03T00:37:54.580Z,78.15
2018-06-03T00:37:58.786Z,78.34
2018-06-03T00:38:03.001Z,78.44
2018-06-03T00:38:07.107Z,78.34
2018-06-03T00:38:11.207Z,78.15
2018-06-03T00:38:15.416Z,78.15
2018-06-03T00:38:19.740Z,78.25
2018-06-03T00:38:24.059Z,78.63
2018-06-03T00:38:28.159Z,78.63
2018-06-03T00:38:32.368Z,78.44
2018-06-03T00:38:36.597Z,78.72
2018-06-03T00:38:40.919Z,78.44
2018-06-03T00:38:45.130Z,78.82
2018-06-03T00:38:49.446Z,78.92
2018-06-03T00:38:53.664Z,78.92
2018-06-03T00:38:57.868Z,78.53
2018-06-03T00:39:02.019Z,78.63
2018-06-03T00:39:06.233Z,78.63
2018-06-03T00:39:10.445Z,78.92
2018-06-03T00:39:14.768Z,78.92
2018-06-03T00:39:19.094Z,78.92
2018-06-03T00:39:23.409Z,78.63
2018-06-03T00:39:27.622Z,79.01
2018-06-03T00:39:31.948Z,78.63
2018-06-03T00:39:36.046Z,78.72
2018-06-03T00:39:40.255Z,78.82
2018-06-03T00:39:44.357Z,78.92
2018-06-03T00:39:48.718Z,78.92
2018-06-03T00:39:53.039Z,78.82
2018-06-03T00:39:57.149Z,79.01
2018-06-03T00:40:01.268Z,78.63
2018-06-03T00:40:05.298Z,78.82
2018-06-03T00:40:09.513Z,78.82
2018-06-03T00:40:13.720Z,79.11
2018-06-03T00:40:17.942Z,79.01
2018-06-03T00:40:22.572Z,79.01
2018-06-03T00:40:27.008Z,79.21
2018-06-03T00:40:31.748Z,78.82
2018-06-03T00:40:35.959Z,78.82
2018-06-03T00:40:40.168Z,79.11
2018-06-03T00:40:44.372Z,79.11
2018-06-03T00:40:48.480Z,79.11
2018-06-03T00:40:52.794Z,78.92
2018-06-03T00:40:57.001Z,79.01
2018-06-03T00:41:01.099Z,78.92
2018-06-03T00:41:05.103Z,79.3
2018-06-03T00:41:09.426Z,79.39
2018-06-03T00:41:13.638Z,79.01
2018-06-03T00:41:17.743Z,79.39
2018-06-03T00:41:22.065Z,79.3
2018-06-03T00:41:26.167Z,79.3
2018-06-03T00:41:30.484Z,78.92
2018-06-03T00:41:34.818Z,78.92
2018-06-03T00:41:39.032Z,79.01
2018-06-03T00:41:43.365Z,79.11
2018-06-03T00:41:47.591Z,79.11
2018-06-03T00:41:51.910Z,78.92
2018-06-03T00:41:56.120Z,78.72
2018-06-03T00:42:00.437Z,78.82
2018-06-03T00:42:04.433Z,78.92
2018-06-03T00:42:08.665Z,78.82
2018-06-03T00:42:12.980Z,78.72
2018-06-03T00:42:17.190Z,79.01
2018-06-03T00:42:21.544Z,79.01
2018-06-03T00:42:25.764Z,79.05
2018-06-03T00:42:30.084Z,78.82
2018-06-03T00:42:34.080Z,78.92
2018-06-03T00:42:38.190Z,78.72
2018-06-03T00:42:42.502Z,78.63
2018-06-03T00:42:46.842Z,78.72
2018-06-03T00:42:50.835Z,78.72
2018-06-03T00:42:54.933Z,78.77
2018-06-03T00:42:59.253Z,79.01
2018-06-03T00:43:03.367Z,78.92
2018-06-03T00:43:07.619Z,78.53
2018-06-03T00:43:11.724Z,78.63
2018-06-03T00:43:15.933Z,78.72
2018-06-03T00:43:20.257Z,78.25
2018-06-03T00:43:24.576Z,77.95
2018-06-03T00:43:28.890Z,78.15
2018-06-03T00:43:33.204Z,78.25
2018-06-03T00:43:37.301Z,78.34
2018-06-03T00:43:41.517Z,78.34
2018-06-03T00:43:45.624Z,78.44
2018-06-03T00:43:49.615Z,78.38
2018-06-03T00:43:53.715Z,78.34
2018-06-03T00:43:57.924Z,78.44
2018-06-03T00:44:02.025Z,78.34
2018-06-03T00:44:06.243Z,78.25
2018-06-03T00:44:10.560Z,78.25
2018-06-03T00:44:14.885Z,78.25
2018-06-03T00:44:19.091Z,77.95
2018-06-03T00:44:23.191Z,78.25
2018-06-03T00:44:27.524Z,77.95
2018-06-03T00:44:31.844Z,78.15
2018-06-03T00:44:36.064Z,78.44
2018-06-03T00:44:40.275Z,78.63
2018-06-03T00:44:44.596Z,78.63
2018-06-03T00:44:48.924Z,78.63
2018-06-03T00:44:53.238Z,78.44
2018-06-03T00:44:57.447Z,78.44
2018-06-03T00:45:01.763Z,78.53
2018-06-03T00:45:05.757Z,78.63
2018-06-03T00:45:09.972Z,78.53
2018-06-03T00:45:14.181Z,78.44
2018-06-03T00:45:18.389Z,78.53
2018-06-03T00:45:22.702Z,78.53
2018-06-03T00:45:26.912Z,78.63
2018-06-03T00:45:31.128Z,78.72
2018-06-03T00:45:35.232Z,78.72
2018-06-03T00:45:39.554Z,78.53
2018-06-03T00:45:43.652Z,78.72
2018-06-03T00:45:47.975Z,79.11
2018-06-03T00:45:52.185Z,78.72
2018-06-03T00:45:56.515Z,78.82
2018-06-03T00:46:00.727Z,79.11
2018-06-03T00:46:04.617Z,78.82
2018-06-03T00:46:08.839Z,78.92
2018-06-03T00:46:13.150Z,79.11
2018-06-03T00:46:17.474Z,79.3
2018-06-03T00:46:21.804Z,79.21
2018-06-03T00:46:26.129Z,79.11
2018-06-03T00:46:30.228Z,79.21
2018-06-03T00:46:34.544Z,79.3
2018-06-03T00:46:38.753Z,79.11
2018-06-03T00:46:42.968Z,79.21
2018-06-03T00:46:47.070Z,79.78
2018-06-03T00:46:51.298Z,79.88
2018-06-03T00:46:55.507Z,79.78
2018-06-03T00:46:59.603Z,79.78
2018-06-03T00:47:03.567Z,79.3
2018-06-03T00:47:07.452Z,79.39
2018-06-03T00:47:11.774Z,79.49
2018-06-03T00:47:15.885Z,79.59
2018-06-03T00:47:20.207Z,79.78
2018-06-03T00:47:24.427Z,79.97
2018-06-03T00:47:28.636Z,79.88
2018-06-03T00:47:32.956Z,80.07
2018-06-03T00:47:37.065Z,79.78
2018-06-03T00:47:41.269Z,80.07
2018-06-03T00:47:45.478Z,80.07
2018-06-03T00:47:49.582Z,80.16
2018-06-03T00:47:53.791Z,79.49
2018-06-03T00:47:57.996Z,79.59
2018-06-03T00:48:02.096Z,80.26
2018-06-03T00:48:06.088Z,80.26
2018-06-03T00:48:10.404Z,80.26
2018-06-03T00:48:14.505Z,80.26
2018-06-03T00:48:18.823Z,79.97
2018-06-03T00:48:23.027Z,80.07
2018-06-03T00:48:27.235Z,80.35
2018-06-03T00:48:31.550Z,79.88
2018-06-03T00:48:35.657Z,80.07
2018-06-03T00:48:39.874Z,80.55
2018-06-03T00:48:43.984Z,80.07
2018-06-03T00:48:48.087Z,79.97
2018-06-03T00:48:52.344Z,80.35
2018-06-03T00:48:56.658Z,80.35
2018-06-03T00:49:00.866Z,80.26
2018-06-03T00:49:05.081Z,80.35
2018-06-03T00:49:09.288Z,80.07
2018-06-03T00:49:13.606Z,80.45
2018-06-03T00:49:17.938Z,80.35
2018-06-03T00:49:22.146Z,80.35
2018-06-03T00:49:26.467Z,80.35
2018-06-03T00:49:30.695Z,80.35
2018-06-03T00:49:35.081Z,80.55
2018-06-03T00:49:39.186Z,80.45
2018-06-03T00:49:43.186Z,80.55
2018-06-03T00:49:47.293Z,80.45
2018-06-03T00:49:51.393Z,80.45
2018-06-03T00:49:55.496Z,80.16
2018-06-03T00:49:59.725Z,80.45
2018-06-03T00:50:03.986Z,80.16
2018-06-03T00:50:08.093Z,80.16
2018-06-03T00:50:12.197Z,80.26
2018-06-03T00:50:16.567Z,80.35
2018-06-03T00:50:20.886Z,80.55
2018-06-03T00:50:25.216Z,80.35
2018-06-03T00:50:29.428Z,80.07
2018-06-03T00:50:33.416Z,80.45
2018-06-03T00:50:37.519Z,79.97
2018-06-03T00:50:41.842Z,80.35
2018-06-03T00:50:45.944Z,80.35
2018-06-03T00:50:50.050Z,80.64
2018-06-03T00:50:54.157Z,80.16
2018-06-03T00:50:58.154Z,80.35
2018-06-03T00:51:02.260Z,80.35
2018-06-03T00:51:06.145Z,79.97
2018-06-03T00:51:10.351Z,79.97
2018-06-03T00:51:14.676Z,79.88
2018-06-03T00:51:19.010Z,80.07
2018-06-03T00:51:23.364Z,80.07
2018-06-03T00:51:27.472Z,80.07
2018-06-03T00:51:31.744Z,80.07
2018-06-03T00:51:36.068Z,80.26
2018-06-03T00:51:40.385Z,80.26
2018-06-03T00:51:44.376Z,80.16
2018-06-03T00:51:48.581Z,80.07
2018-06-03T00:51:52.790Z,80.07
2018-06-03T00:51:56.892Z,80.16
2018-06-03T00:52:01.102Z,80.26
2018-06-03T00:52:05.427Z,80.16
2018-06-03T00:52:09.642Z,80.16
2018-06-03T00:52:13.637Z,80.16
2018-06-03T00:52:17.959Z,80.16
2018-06-03T00:52:22.180Z,80.16
2018-06-03T00:52:26.174Z,80.26
2018-06-03T00:52:30.387Z,80.07
2018-06-03T00:52:34.596Z,80.35
2018-06-03T00:52:38.928Z,80.16
2018-06-03T00:52:43.132Z,80.16
2018-06-03T00:52:47.235Z,80.26
2018-06-03T00:52:51.387Z,80.07
2018-06-03T00:52:55.669Z,80.35
2018-06-03T00:52:59.877Z,79.97
2018-06-03T00:53:04.027Z,80.26
2018-06-03T00:53:08.246Z,80.35
2018-06-03T00:53:12.564Z,79.97
2018-06-03T00:53:16.780Z,80.07
2018-06-03T00:53:21.090Z,80.35
2018-06-03T00:53:25.405Z,80.16
2018-06-03T00:53:29.619Z,79.78
2018-06-03T00:53:33.836Z,79.49
2018-06-03T00:53:38.172Z,80.35
2018-06-03T00:53:42.379Z,80.35
2018-06-03T00:53:46.370Z,79.88
2018-06-03T00:53:50.575Z,79.49
2018-06-03T00:53:54.784Z,80.26
2018-06-03T00:53:58.892Z,80.26
2018-06-03T00:54:03.001Z,79.78
2018-06-03T00:54:07.232Z,80.26
2018-06-03T00:54:11.346Z,79.88
2018-06-03T00:54:15.556Z,80.45